Airfield :
LOGIN :

Register | Disclaimer

   EN    FR    IT 

 










Legend :    VFR   Marginal VFR   IFR   Intensive IFR   Very Intensive IFR
Visi :
Ceiling :
>= 8 km
>= 3000ft
5 to 8 km
1000 to 3000 ft
1500m to 5 km
500 to 1000 ft
800 to 1500m
200 to 500 ft
< 800m
< 200 ft
Symbols :   Thunderstorms  Fog  Heavy snow  Heavy precipitations  Wind > 20 kt
SIGMETs :     Misc.  Thunderstorms  Icing  Turbulence  Mountain Waves  Volcanic Ashes






- Airport Elevation : 776 ft
- IATA code : RMS


ETAR - Ramstein Air Base

CURRENT METAR :
  • 161146Z AUTO 09005KT 9999 BKN029 13/07 A3014 RMK AO2 BKN V SCT SLP212 $

EXPIRED METARs :
  • 161056Z AUTO 03006KT 9999 FEW017 FEW025 13/07 A3015 RMK AO2 SLP215 T01270069 $
  • 160956Z 00000KT 9999 CLR 09/09 A3017 RMK AO2A SLP223 T00880085 $
  • 160942Z 06003KT 9999 SCT006 09/09 A3017 RMK SLP224 $
  • 160856Z 07003KT 6000 BR SCT002 07/07 A3018 RMK AO2A VIS 4400 RWY08 SLP227 T00680068 51009 $

TAF TAF ETAR
Valid from the 16 at 10:00 until the 17 at 16:00 UTC


161000Z 1610/1716 04006KT 9999 SCT030 BKN050 QNH3010INS
BECMG 1617/1618 08006KT 9999 SCT025 BKN050 QNH3016INS
BECMG 1619/1620 VRB04KT 6000 BR FEW025 QNH3015INS
BECMG 1623/1624 VRB04KT 0600 FG VV002 QNH3014INS
BECMG 1707/1708 VRB04KT 8000 BR BKN010 QNH3014INS
BECMG 1711/1712 18009KT 9999 NSW SCT025 QNH3017INS TX13/1613Z TN02/1703Z



MET'MAP, your aeronautical weather chart ! - Copyright ORBIFLY December 2007 - Disclaimer

ORBIFLY MET'MAP TEAM :

Programming & Development : Alexandra Zaïnal
Concept & original design : Baudouin d'Aumeries
Assistance for programming : Marc-Olivier Méhu
Technical & hardware support : Manuel Goepfert

Contact : metmap@orbifly.com




SOURCES & CREDITS :

   NOAA